sensor_id;sensor_type;location;lat;lon;timestamp;pressure;altitude;pressure_sealevel;temperature;humidity
53041;BME280;39326;42.650;23.248;2023-11-22T00:00:54;91808.03;;;6.46;78.04
53041;BME280;39326;42.650;23.248;2023-11-22T00:03:20;91808.78;;;6.39;78.68
53041;BME280;39326;42.650;23.248;2023-11-22T00:05:46;91806.13;;;6.43;79.05
53041;BME280;39326;42.650;23.248;2023-11-22T00:08:12;91811.41;;;6.39;79.35
53041;BME280;39326;42.650;23.248;2023-11-22T00:10:38;91807.63;;;6.40;79.64
53041;BME280;39326;42.650;23.248;2023-11-22T00:13:04;91809.94;;;6.45;78.90
53041;BME280;39326;42.650;23.248;2023-11-22T00:15:30;91813.31;;;6.42;79.41
53041;BME280;39326;42.650;23.248;2023-11-22T00:17:56;91812.94;;;6.47;78.86
53041;BME280;39326;42.650;23.248;2023-11-22T00:20:31;91806.53;;;6.52;78.89
53041;BME280;39326;42.650;23.248;2023-11-22T00:22:59;91807.34;;;6.56;78.66
53041;BME280;39326;42.650;23.248;2023-11-22T00:25:25;91800.53;;;6.58;78.54
53041;BME280;39326;42.650;23.248;2023-11-22T00:27:50;91809.16;;;6.41;79.55
53041;BME280;39326;42.650;23.248;2023-11-22T00:30:16;91808.00;;;6.35;80.36
53041;BME280;39326;42.650;23.248;2023-11-22T00:32:42;91806.50;;;6.48;79.52
53041;BME280;39326;42.650;23.248;2023-11-22T00:35:08;91808.81;;;6.50;79.86
53041;BME280;39326;42.650;23.248;2023-11-22T00:37:34;91819.69;;;6.23;80.84
53041;BME280;39326;42.650;23.248;2023-11-22T00:40:00;91819.34;;;6.36;80.35
53041;BME280;39326;42.650;23.248;2023-11-22T00:42:31;91815.59;;;6.44;79.29
53041;BME280;39326;42.650;23.248;2023-11-22T00:44:57;91808.75;;;6.36;80.19
53041;BME280;39326;42.650;23.248;2023-11-22T00:47:23;91818.91;;;6.16;81.28
53041;BME280;39326;42.650;23.248;2023-11-22T00:49:48;91805.72;;;6.34;80.47
53041;BME280;39326;42.650;23.248;2023-11-22T00:52:14;91815.97;;;6.42;79.96
53041;BME280;39326;42.650;23.248;2023-11-22T00:54:40;91808.75;;;6.43;80.24
53041;BME280;39326;42.650;23.248;2023-11-22T00:57:06;91803.50;;;6.46;80.23
53041;BME280;39326;42.650;23.248;2023-11-22T00:59:32;91801.19;;;6.34;80.99
53041;BME280;39326;42.650;23.248;2023-11-22T01:01:58;91803.47;;;6.32;80.62
53041;BME280;39326;42.650;23.248;2023-11-22T01:04:24;91801.22;;;6.45;80.07
53041;BME280;39326;42.650;23.248;2023-11-22T01:06:50;91808.09;;;6.56;79.22
53041;BME280;39326;42.650;23.248;2023-11-22T01:09:15;91793.69;;;6.50;79.20
53041;BME280;39326;42.650;23.248;2023-11-22T01:11:41;91798.22;;;6.53;79.18
53041;BME280;39326;42.650;23.248;2023-11-22T01:14:07;91788.00;;;6.55;78.66
53041;BME280;39326;42.650;23.248;2023-11-22T01:16:32;91789.53;;;6.60;78.66
53041;BME280;39326;42.650;23.248;2023-11-22T01:18:58;91785.38;;;6.59;79.34
53041;BME280;39326;42.650;23.248;2023-11-22T01:21:24;91780.03;;;6.45;80.00
53041;BME280;39326;42.650;23.248;2023-11-22T01:23:50;91789.50;;;6.49;79.75
53041;BME280;39326;42.650;23.248;2023-11-22T01:26:16;91791.44;;;6.60;79.39
53041;BME280;39326;42.650;23.248;2023-11-22T01:28:42;91785.41;;;6.66;79.00
53041;BME280;39326;42.650;23.248;2023-11-22T01:31:11;91785.03;;;6.64;79.06
53041;BME280;39326;42.650;23.248;2023-11-22T01:33:38;91776.31;;;6.67;79.11
53041;BME280;39326;42.650;23.248;2023-11-22T01:36:04;91761.91;;;6.68;78.87
53041;BME280;39326;42.650;23.248;2023-11-22T01:38:30;91761.16;;;6.68;78.85
53041;BME280;39326;42.650;23.248;2023-11-22T01:40:56;91761.44;;;6.30;81.14
53041;BME280;39326;42.650;23.248;2023-11-22T01:43:22;91762.97;;;6.28;81.35
53041;BME280;39326;42.650;23.248;2023-11-22T01:45:49;91758.47;;;6.46;79.36
53041;BME280;39326;42.650;23.248;2023-11-22T01:48:15;91747.53;;;6.58;78.89
53041;BME280;39326;42.650;23.248;2023-11-22T01:50:42;91760.03;;;6.65;78.09
53041;BME280;39326;42.650;23.248;2023-11-22T01:53:11;91759.28;;;6.72;78.22
53041;BME280;39326;42.650;23.248;2023-11-22T01:55:39;91768.34;;;6.67;78.57
53041;BME280;39326;42.650;23.248;2023-11-22T01:58:05;91765.34;;;6.72;77.87
53041;BME280;39326;42.650;23.248;2023-11-22T02:00:36;91769.50;;;6.73;78.25
53041;BME280;39326;42.650;23.248;2023-11-22T02:03:02;91769.50;;;6.66;78.51
53041;BME280;39326;42.650;23.248;2023-11-22T02:05:28;91768.00;;;6.72;78.04
53041;BME280;39326;42.650;23.248;2023-11-22T02:07:54;91760.81;;;6.76;77.58
53041;BME280;39326;42.650;23.248;2023-11-22T02:10:20;91748.31;;;6.70;77.69
53041;BME280;39326;42.650;23.248;2023-11-22T02:12:46;91746.03;;;6.65;78.27
53041;BME280;39326;42.650;23.248;2023-11-22T02:15:11;91741.88;;;6.71;77.91
53041;BME280;39326;42.650;23.248;2023-11-22T02:17:37;91750.94;;;6.73;77.59
53041;BME280;39326;42.650;23.248;2023-11-22T02:20:04;91733.94;;;6.64;77.78
53041;BME280;39326;42.650;23.248;2023-11-22T02:22:34;91743.38;;;6.57;78.36
53041;BME280;39326;42.650;23.248;2023-11-22T02:24:59;91742.63;;;6.61;78.29
53041;BME280;39326;42.650;23.248;2023-11-22T02:27:25;91746.44;;;6.70;77.56
53041;BME280;39326;42.650;23.248;2023-11-22T02:29:51;91747.56;;;6.69;77.34
53041;BME280;39326;42.650;23.248;2023-11-22T02:32:16;91757.75;;;6.74;77.31
53041;BME280;39326;42.650;23.248;2023-11-22T02:34:42;91746.81;;;6.69;77.48
53041;BME280;39326;42.650;23.248;2023-11-22T02:37:07;91749.06;;;6.67;77.67
53041;BME280;39326;42.650;23.248;2023-11-22T02:39:51;91743.03;;;6.63;77.68
53041;BME280;39326;42.650;23.248;2023-11-22T02:42:21;91748.69;;;6.65;78.18
53041;BME280;39326;42.650;23.248;2023-11-22T02:44:46;91748.31;;;6.63;78.24
53041;BME280;39326;42.650;23.248;2023-11-22T02:47:12;91750.94;;;6.66;78.00
53041;BME280;39326;42.650;23.248;2023-11-22T02:49:38;91751.31;;;6.68;77.34
53041;BME280;39326;42.650;23.248;2023-11-22T02:52:04;91743.38;;;6.65;77.24
53041;BME280;39326;42.650;23.248;2023-11-22T02:54:31;91747.19;;;6.71;77.12
53041;BME280;39326;42.650;23.248;2023-11-22T02:56:57;91734.31;;;6.66;77.37
53041;BME280;39326;42.650;23.248;2023-11-22T02:59:22;91748.63;;;6.47;78.18
53041;BME280;39326;42.650;23.248;2023-11-22T03:01:50;91748.25;;;6.52;78.28
53041;BME280;39326;42.650;23.248;2023-11-22T03:04:16;91749.44;;;6.62;77.58
53041;BME280;39326;42.650;23.248;2023-11-22T03:06:42;91756.63;;;6.61;77.66
53041;BME280;39326;42.650;23.248;2023-11-22T03:09:07;91755.50;;;6.66;77.23
53041;BME280;39326;42.650;23.248;2023-11-22T03:11:33;91753.63;;;6.63;77.34
53041;BME280;39326;42.650;23.248;2023-11-22T03:13:59;91746.41;;;6.67;77.60
53041;BME280;39326;42.650;23.248;2023-11-22T03:16:24;91752.47;;;6.64;77.71
53041;BME280;39326;42.650;23.248;2023-11-22T03:18:50;91762.31;;;6.60;78.00
53041;BME280;39326;42.650;23.248;2023-11-22T03:21:16;91768.34;;;6.60;77.29
53041;BME280;39326;42.650;23.248;2023-11-22T03:23:42;91760.03;;;6.62;77.42
53041;BME280;39326;42.650;23.248;2023-11-22T03:26:08;91764.19;;;6.59;77.62
53041;BME280;39326;42.650;23.248;2023-11-22T03:28:35;91757.78;;;6.56;78.26
53041;BME280;39326;42.650;23.248;2023-11-22T03:31:00;91761.94;;;6.57;77.74
53041;BME280;39326;42.650;23.248;2023-11-22T03:33:28;91760.75;;;6.55;78.02
53041;BME280;39326;42.650;23.248;2023-11-22T03:35:53;91762.25;;;6.52;78.31
53041;BME280;39326;42.650;23.248;2023-11-22T03:38:19;91766.06;;;6.62;77.86
53041;BME280;39326;42.650;23.248;2023-11-22T03:40:46;91752.06;;;6.62;78.28
53041;BME280;39326;42.650;23.248;2023-11-22T03:43:12;91755.44;;;6.55;78.51
53041;BME280;39326;42.650;23.248;2023-11-22T03:45:37;91749.78;;;6.53;78.78
53041;BME280;39326;42.650;23.248;2023-11-22T03:48:03;91748.25;;;6.52;78.26
53041;BME280;39326;42.650;23.248;2023-11-22T03:50:29;91744.09;;;6.51;78.71
53041;BME280;39326;42.650;23.248;2023-11-22T03:52:54;91748.63;;;6.54;78.88
53041;BME280;39326;42.650;23.248;2023-11-22T03:55:20;91751.34;;;6.57;79.23
53041;BME280;39326;42.650;23.248;2023-11-22T03:57:46;91758.09;;;6.48;80.20
53041;BME280;39326;42.650;23.248;2023-11-22T04:00:12;91758.84;;;6.52;79.51
53041;BME280;39326;42.650;23.248;2023-11-22T04:02:39;91763.41;;;6.55;79.51
53041;BME280;39326;42.650;23.248;2023-11-22T04:05:05;91767.22;;;6.57;79.51
53041;BME280;39326;42.650;23.248;2023-11-22T04:07:32;91771.00;;;6.56;79.45
53041;BME280;39326;42.650;23.248;2023-11-22T04:09:58;91771.00;;;6.56;79.08
53041;BME280;39326;42.650;23.248;2023-11-22T04:12:24;91784.25;;;6.64;78.94
53041;BME280;39326;42.650;23.248;2023-11-22T04:14:50;91786.91;;;6.67;78.93
53041;BME280;39326;42.650;23.248;2023-11-22T04:17:17;91786.56;;;6.69;79.12
53041;BME280;39326;42.650;23.248;2023-11-22T04:19:42;91789.94;;;6.69;79.19
53041;BME280;39326;42.650;23.248;2023-11-22T04:22:08;91794.09;;;6.67;79.71
53041;BME280;39326;42.650;23.248;2023-11-22T04:24:33;91786.16;;;6.63;80.03
53041;BME280;39326;42.650;23.248;2023-11-22T04:26:59;91799.78;;;6.69;80.08
53041;BME280;39326;42.650;23.248;2023-11-22T04:29:25;91799.00;;;6.68;79.85
53041;BME280;39326;42.650;23.248;2023-11-22T04:31:50;91799.78;;;6.65;80.05
53041;BME280;39326;42.650;23.248;2023-11-22T04:34:16;91790.31;;;6.64;79.85
53041;BME280;39326;42.650;23.248;2023-11-22T04:36:41;91807.34;;;6.67;79.91
53041;BME280;39326;42.650;23.248;2023-11-22T04:39:07;91805.81;;;6.58;80.70
53041;BME280;39326;42.650;23.248;2023-11-22T04:41:33;91802.06;;;6.63;80.72
53041;BME280;39326;42.650;23.248;2023-11-22T04:43:59;91796.00;;;6.63;81.09
53041;BME280;39326;42.650;23.248;2023-11-22T04:46:25;91810.38;;;6.72;80.20
53041;BME280;39326;42.650;23.248;2023-11-22T04:48:51;91814.19;;;6.75;80.24
53041;BME280;39326;42.650;23.248;2023-11-22T04:51:17;91821.00;;;6.83;80.60
53041;BME280;39326;42.650;23.248;2023-11-22T04:53:43;91839.91;;;6.78;81.18
53041;BME280;39326;42.650;23.248;2023-11-22T04:56:09;91839.16;;;6.74;81.35
53041;BME280;39326;42.650;23.248;2023-11-22T04:58:34;91845.97;;;6.78;80.68
53041;BME280;39326;42.650;23.248;2023-11-22T05:01:01;91850.53;;;6.85;81.01
53041;BME280;39326;42.650;23.248;2023-11-22T05:03:27;91850.16;;;6.83;81.02
53041;BME280;39326;42.650;23.248;2023-11-22T05:05:52;91849.00;;;6.77;81.38
53041;BME280;39326;42.650;23.248;2023-11-22T05:08:18;91853.53;;;6.80;81.15
53041;BME280;39326;42.650;23.248;2023-11-22T05:10:44;91863.38;;;6.79;80.85
53041;BME280;39326;42.650;23.248;2023-11-22T05:13:09;91847.09;;;6.70;81.78
53041;BME280;39326;42.650;23.248;2023-11-22T05:15:36;91863.00;;;6.74;81.65
53041;BME280;39326;42.650;23.248;2023-11-22T05:18:02;91864.50;;;6.68;82.23
53041;BME280;39326;42.650;23.248;2023-11-22T05:20:27;91871.66;;;6.60;82.86
53041;BME280;39326;42.650;23.248;2023-11-22T05:22:53;91880.75;;;6.66;81.83
53041;BME280;39326;42.650;23.248;2023-11-22T05:25:19;91884.94;;;6.64;82.30
53041;BME280;39326;42.650;23.248;2023-11-22T05:27:44;91880.38;;;6.61;82.29
53041;BME280;39326;42.650;23.248;2023-11-22T05:30:11;91884.47;;;6.44;84.10
53041;BME280;39326;42.650;23.248;2023-11-22T05:32:36;91897.34;;;6.52;83.74
53041;BME280;39326;42.650;23.248;2023-11-22T05:35:02;91909.06;;;6.48;83.96
53041;BME280;39326;42.650;23.248;2023-11-22T05:37:29;91902.63;;;6.49;84.35
53041;BME280;39326;42.650;23.248;2023-11-22T05:39:55;91895.06;;;6.47;84.42
53041;BME280;39326;42.650;23.248;2023-11-22T05:42:21;91891.66;;;6.50;84.42
53041;BME280;39326;42.650;23.248;2023-11-22T05:44:47;91904.53;;;6.52;84.70
53041;BME280;39326;42.650;23.248;2023-11-22T05:47:12;91909.38;;;6.36;86.48
53041;BME280;39326;42.650;23.248;2023-11-22T05:49:38;91910.50;;;6.35;86.69
53041;BME280;39326;42.650;23.248;2023-11-22T05:52:04;91909.81;;;6.48;85.24
53041;BME280;39326;42.650;23.248;2023-11-22T05:54:30;91912.84;;;6.54;84.83
53041;BME280;39326;42.650;23.248;2023-11-22T05:56:57;91925.41;;;6.61;84.91
53041;BME280;39326;42.650;23.248;2023-11-22T05:59:22;91921.63;;;6.62;84.39
53041;BME280;39326;42.650;23.248;2023-11-22T06:01:49;91936.75;;;6.57;84.70
53041;BME280;39326;42.650;23.248;2023-11-22T06:04:15;91927.28;;;6.60;85.00
53041;BME280;39326;42.650;23.248;2023-11-22T06:06:40;91931.47;;;6.65;84.54
53041;BME280;39326;42.650;23.248;2023-11-22T06:09:06;91930.72;;;6.64;84.64
53041;BME280;39326;42.650;23.248;2023-11-22T06:11:32;91937.13;;;6.60;85.52
53041;BME280;39326;42.650;23.248;2023-11-22T06:13:59;91952.28;;;6.59;86.16
53041;BME280;39326;42.650;23.248;2023-11-22T06:16:24;91950.41;;;6.67;86.03
53041;BME280;39326;42.650;23.248;2023-11-22T06:18:50;91956.13;;;6.76;85.82
53041;BME280;39326;42.650;23.248;2023-11-22T06:21:15;91962.22;;;6.83;85.50
53041;BME280;39326;42.650;23.248;2023-11-22T06:23:41;91963.34;;;6.82;85.95
53041;BME280;39326;42.650;23.248;2023-11-22T06:26:07;91964.84;;;6.80;85.81
53041;BME280;39326;42.650;23.248;2023-11-22T06:28:32;91959.56;;;6.83;85.43
53041;BME280;39326;42.650;23.248;2023-11-22T06:30:58;91960.69;;;6.86;85.35
53041;BME280;39326;42.650;23.248;2023-11-22T06:33:23;91967.13;;;6.85;86.05
53041;BME280;39326;42.650;23.248;2023-11-22T06:35:49;91970.13;;;6.69;88.06
53041;BME280;39326;42.650;23.248;2023-11-22T06:38:15;91970.91;;;6.80;87.60
53041;BME280;39326;42.650;23.248;2023-11-22T06:40:41;91967.16;;;6.92;86.30
53041;BME280;39326;42.650;23.248;2023-11-22T06:43:07;91983.09;;;6.96;86.66
53041;BME280;39326;42.650;23.248;2023-11-22T06:45:33;91989.81;;;6.79;88.08
53041;BME280;39326;42.650;23.248;2023-11-22T06:47:58;91996.31;;;6.92;87.32
53041;BME280;39326;42.650;23.248;2023-11-22T06:50:24;91983.09;;;6.96;86.97
53041;BME280;39326;42.650;23.248;2023-11-22T06:52:50;91995.59;;;7.02;86.75
53041;BME280;39326;42.650;23.248;2023-11-22T06:55:15;91985.72;;;6.99;86.78
53041;BME280;39326;42.650;23.248;2023-11-22T06:57:41;91983.50;;;7.01;86.88
53041;BME280;39326;42.650;23.248;2023-11-22T07:00:07;91987.69;;;7.13;86.21
53041;BME280;39326;42.650;23.248;2023-11-22T07:02:35;91988.06;;;7.08;86.91
53041;BME280;39326;42.650;23.248;2023-11-22T07:05:03;91992.19;;;7.02;87.77
53041;BME280;39326;42.650;23.248;2023-11-22T07:07:29;92005.75;;;6.86;89.99
53041;BME280;39326;42.650;23.248;2023-11-22T07:09:55;92008.31;;;6.68;90.88
53041;BME280;39326;42.650;23.248;2023-11-22T07:12:27;92010.72;;;6.88;89.83
53041;BME280;39326;42.650;23.248;2023-11-22T07:14:53;92007.31;;;6.98;88.95
53041;BME280;39326;42.650;23.248;2023-11-22T07:17:18;92019.09;;;7.00;89.61
53041;BME280;39326;42.650;23.248;2023-11-22T07:19:44;92011.94;;;7.15;88.11
53041;BME280;39326;42.650;23.248;2023-11-22T07:22:14;92018.03;;;7.19;87.59
53041;BME280;39326;42.650;23.248;2023-11-22T07:24:45;92010.81;;;7.16;87.82
53041;BME280;39326;42.650;23.248;2023-11-22T07:27:13;92014.59;;;7.22;87.75
53041;BME280;39326;42.650;23.248;2023-11-22T07:29:42;92025.19;;;7.08;88.92
53041;BME280;39326;42.650;23.248;2023-11-22T07:32:08;92025.56;;;7.10;88.38
53041;BME280;39326;42.650;23.248;2023-11-22T07:34:39;92025.97;;;7.19;87.69
53041;BME280;39326;42.650;23.248;2023-11-22T07:37:05;92022.59;;;7.26;87.70
53041;BME280;39326;42.650;23.248;2023-11-22T07:39:36;92026.75;;;7.30;87.43
53041;BME280;39326;42.650;23.248;2023-11-22T07:42:04;92025.63;;;7.31;87.72
53041;BME280;39326;42.650;23.248;2023-11-22T07:44:33;92035.44;;;7.24;88.30
53041;BME280;39326;42.650;23.248;2023-11-22T07:47:01;92041.44;;;7.03;89.48
53041;BME280;39326;42.650;23.248;2023-11-22T07:49:27;92034.25;;;7.10;89.17
53041;BME280;39326;42.650;23.248;2023-11-22T07:51:54;92034.69;;;7.23;88.67
53041;BME280;39326;42.650;23.248;2023-11-22T07:54:19;92033.59;;;7.31;88.49
53041;BME280;39326;42.650;23.248;2023-11-22T07:56:48;92032.44;;;7.36;88.04
53041;BME280;39326;42.650;23.248;2023-11-22T07:59:14;92030.97;;;7.38;87.47
53041;BME280;39326;42.650;23.248;2023-11-22T08:01:42;92026.75;;;7.37;87.78
53041;BME280;39326;42.650;23.248;2023-11-22T08:04:09;92025.28;;;7.40;88.36
53041;BME280;39326;42.650;23.248;2023-11-22T08:06:35;92030.97;;;7.42;88.10
53041;BME280;39326;42.650;23.248;2023-11-22T08:09:01;92039.97;;;7.16;90.59
53041;BME280;39326;42.650;23.248;2023-11-22T08:11:29;92035.78;;;7.11;89.74
53041;BME280;39326;42.650;23.248;2023-11-22T08:13:55;92036.59;;;7.19;89.85
53041;BME280;39326;42.650;23.248;2023-11-22T08:16:25;92039.25;;;7.30;89.43
53041;BME280;39326;42.650;23.248;2023-11-22T08:18:51;92046.84;;;7.31;88.98
53041;BME280;39326;42.650;23.248;2023-11-22T08:21:16;92040.38;;;7.29;88.63
53041;BME280;39326;42.650;23.248;2023-11-22T08:23:42;92042.31;;;7.39;87.27
53041;BME280;39326;42.650;23.248;2023-11-22T08:26:08;92044.59;;;7.33;87.80
53041;BME280;39326;42.650;23.248;2023-11-22T08:28:34;92045.72;;;7.43;87.72
53041;BME280;39326;42.650;23.248;2023-11-22T08:31:00;92053.28;;;7.30;88.74
53041;BME280;39326;42.650;23.248;2023-11-22T08:33:26;92054.47;;;7.47;87.88
53041;BME280;39326;42.650;23.248;2023-11-22T08:35:51;92057.50;;;7.49;88.59
53041;BME280;39326;42.650;23.248;2023-11-22T08:38:24;92053.72;;;7.54;88.06
53041;BME280;39326;42.650;23.248;2023-11-22T08:40:50;92059.81;;;7.58;87.25
53041;BME280;39326;42.650;23.248;2023-11-22T08:43:15;92047.31;;;7.58;87.49
53041;BME280;39326;42.650;23.248;2023-11-22T08:45:41;92065.13;;;7.61;86.98
53041;BME280;39326;42.650;23.248;2023-11-22T08:48:09;92051.47;;;7.59;87.78
53041;BME280;39326;42.650;23.248;2023-11-22T08:50:35;92054.88;;;7.60;88.22
53041;BME280;39326;42.650;23.248;2023-11-22T08:53:00;92051.47;;;7.59;88.92
53041;BME280;39326;42.650;23.248;2023-11-22T08:55:26;92057.56;;;7.71;87.98
53041;BME280;39326;42.650;23.248;2023-11-22T08:57:52;92057.22;;;7.76;88.03
53041;BME280;39326;42.650;23.248;2023-11-22T09:00:17;92057.56;;;7.78;88.89
53041;BME280;39326;42.650;23.248;2023-11-22T09:02:48;92073.09;;;7.65;89.57
53041;BME280;39326;42.650;23.248;2023-11-22T09:05:14;92075.00;;;7.68;89.99
53041;BME280;39326;42.650;23.248;2023-11-22T09:07:42;92075.00;;;7.68;90.31
53041;BME280;39326;42.650;23.248;2023-11-22T09:10:10;92077.28;;;7.80;89.29
53041;BME280;39326;42.650;23.248;2023-11-22T09:12:39;92087.56;;;7.82;89.11
53041;BME280;39326;42.650;23.248;2023-11-22T09:15:09;92083.38;;;7.91;88.18
53041;BME280;39326;42.650;23.248;2023-11-22T09:17:37;92097.03;;;7.90;88.54
53041;BME280;39326;42.650;23.248;2023-11-22T09:20:11;92094.38;;;7.93;88.53
53041;BME280;39326;42.650;23.248;2023-11-22T09:22:42;92087.94;;;7.98;88.52
53041;BME280;39326;42.650;23.248;2023-11-22T09:25:10;92089.06;;;7.93;88.16
53041;BME280;39326;42.650;23.248;2023-11-22T09:27:37;92097.78;;;7.94;88.13
53041;BME280;39326;42.650;23.248;2023-11-22T09:30:03;92106.91;;;7.97;88.19
53041;BME280;39326;42.650;23.248;2023-11-22T09:32:30;92092.09;;;7.85;88.62
53041;BME280;39326;42.650;23.248;2023-11-22T09:34:56;92105.34;;;7.74;88.03
53041;BME280;39326;42.650;23.248;2023-11-22T09:37:23;92095.47;;;7.71;88.37
53041;BME280;39326;42.650;23.248;2023-11-22T09:39:50;92095.88;;;7.77;87.73
53041;BME280;39326;42.650;23.248;2023-11-22T09:42:16;92094.38;;;7.86;87.81
53041;BME280;39326;42.650;23.248;2023-11-22T09:44:42;92102.34;;;7.90;87.53
53041;BME280;39326;42.650;23.248;2023-11-22T09:47:08;92098.19;;;7.96;87.15
53041;BME280;39326;42.650;23.248;2023-11-22T09:49:36;92095.53;;;8.03;87.18
53041;BME280;39326;42.650;23.248;2023-11-22T09:52:09;92098.59;;;8.09;86.95
53041;BME280;39326;42.650;23.248;2023-11-22T09:54:40;92098.59;;;8.12;86.63
53041;BME280;39326;42.650;23.248;2023-11-22T09:57:06;92097.84;;;8.08;86.71
53041;BME280;39326;42.650;23.248;2023-11-22T09:59:36;92094.78;;;8.06;86.86
53041;BME280;39326;42.650;23.248;2023-11-22T10:02:05;92089.47;;;8.10;86.94
53041;BME280;39326;42.650;23.248;2023-11-22T10:04:32;92084.16;;;8.06;87.34
53041;BME280;39326;42.650;23.248;2023-11-22T10:06:57;92080.34;;;8.00;87.52
53041;BME280;39326;42.650;23.248;2023-11-22T10:09:24;92081.50;;;7.92;88.43
53041;BME280;39326;42.650;23.248;2023-11-22T10:11:50;92076.53;;;7.87;88.62
53041;BME280;39326;42.650;23.248;2023-11-22T10:14:23;92078.09;;;7.88;88.87
53041;BME280;39326;42.650;23.248;2023-11-22T10:16:58;92070.13;;;7.99;89.43
53041;BME280;39326;42.650;23.248;2023-11-22T10:19:25;92076.97;;;8.17;88.24
53041;BME280;39326;42.650;23.248;2023-11-22T10:22:02;92085.69;;;8.22;88.75
53041;BME280;39326;42.650;23.248;2023-11-22T10:24:32;92089.88;;;8.30;88.13
53041;BME280;39326;42.650;23.248;2023-11-22T10:26:59;92081.91;;;8.40;87.73
53041;BME280;39326;42.650;23.248;2023-11-22T10:29:25;92086.09;;;8.41;88.43
53041;BME280;39326;42.650;23.248;2023-11-22T10:31:52;92086.13;;;8.45;88.52
53041;BME280;39326;42.650;23.248;2023-11-22T10:34:24;92090.25;;;8.35;89.33
53041;BME280;39326;42.650;23.248;2023-11-22T10:36:51;92077.75;;;8.43;88.11
53041;BME280;39326;42.650;23.248;2023-11-22T10:39:22;92078.50;;;8.29;89.43
53041;BME280;39326;42.650;23.248;2023-11-22T10:41:48;92083.41;;;8.38;88.78
53041;BME280;39326;42.650;23.248;2023-11-22T10:44:19;92085.72;;;8.50;88.35
53041;BME280;39326;42.650;23.248;2023-11-22T10:46:47;92088.00;;;8.59;88.81
53041;BME280;39326;42.650;23.248;2023-11-22T10:49:12;92094.06;;;8.66;88.19
53041;BME280;39326;42.650;23.248;2023-11-22T10:51:40;92086.47;;;8.79;87.61
53041;BME280;39326;42.650;23.248;2023-11-22T10:54:07;92087.22;;;8.72;87.70
53041;BME280;39326;42.650;23.248;2023-11-22T10:56:39;92087.19;;;8.87;86.75
53041;BME280;39326;42.650;23.248;2023-11-22T10:59:13;92079.63;;;8.89;86.57
53041;BME280;39326;42.650;23.248;2023-11-22T11:01:47;92079.63;;;8.78;87.26
53041;BME280;39326;42.650;23.248;2023-11-22T11:04:33;92078.91;;;8.60;87.81
53041;BME280;39326;42.650;23.248;2023-11-22T11:07:03;92081.19;;;8.58;88.07
53041;BME280;39326;42.650;23.248;2023-11-22T11:09:29;92088.78;;;8.70;87.43
53041;BME280;39326;42.650;23.248;2023-11-22T11:12:01;92094.44;;;8.76;87.81
53041;BME280;39326;42.650;23.248;2023-11-22T11:14:28;92099.34;;;8.88;86.61
53041;BME280;39326;42.650;23.248;2023-11-22T11:16:55;92095.97;;;8.84;87.16
53041;BME280;39326;42.650;23.248;2023-11-22T11:19:24;92102.38;;;8.93;86.48
53041;BME280;39326;42.650;23.248;2023-11-22T11:21:51;92103.91;;;8.91;86.31
53041;BME280;39326;42.650;23.248;2023-11-22T11:24:17;92099.75;;;8.83;87.09
53041;BME280;39326;42.650;23.248;2023-11-22T11:26:49;92097.44;;;8.88;86.78
53041;BME280;39326;42.650;23.248;2023-11-22T11:29:29;92097.09;;;8.79;87.34
53041;BME280;39326;42.650;23.248;2023-11-22T11:31:56;92094.81;;;8.85;87.45
53041;BME280;39326;42.650;23.248;2023-11-22T11:34:23;92094.84;;;8.60;88.17
53041;BME280;39326;42.650;23.248;2023-11-22T11:36:52;92093.31;;;8.73;87.92
53041;BME280;39326;42.650;23.248;2023-11-22T11:39:25;92090.25;;;8.82;87.81
53041;BME280;39326;42.650;23.248;2023-11-22T11:42:07;92091.78;;;8.83;87.85
53041;BME280;39326;42.650;23.248;2023-11-22T11:44:33;92100.91;;;8.89;87.17
53041;BME280;39326;42.650;23.248;2023-11-22T11:46:59;92099.34;;;8.91;87.63
53041;BME280;39326;42.650;23.248;2023-11-22T11:49:24;92094.06;;;8.95;87.52
53041;BME280;39326;42.650;23.248;2023-11-22T11:51:50;92093.69;;;8.71;88.65
53041;BME280;39326;42.650;23.248;2023-11-22T11:54:16;92097.50;;;8.60;88.68
53041;BME280;39326;42.650;23.248;2023-11-22T11:56:41;92094.06;;;8.73;88.43
53041;BME280;39326;42.650;23.248;2023-11-22T11:59:08;92094.84;;;8.56;89.14
53041;BME280;39326;42.650;23.248;2023-11-22T12:01:35;92099.00;;;8.71;88.19
53041;BME280;39326;42.650;23.248;2023-11-22T12:04:01;92097.84;;;8.87;88.08
53041;BME280;39326;42.650;23.248;2023-11-22T12:06:28;92106.97;;;8.89;88.00
53041;BME280;39326;42.650;23.248;2023-11-22T12:08:54;92113.41;;;8.95;87.98
53041;BME280;39326;42.650;23.248;2023-11-22T12:11:20;92113.00;;;9.04;87.32
53041;BME280;39326;42.650;23.248;2023-11-22T12:13:46;92123.66;;;9.04;86.86
53041;BME280;39326;42.650;23.248;2023-11-22T12:16:19;92123.25;;;9.06;86.78
53041;BME280;39326;42.650;23.248;2023-11-22T12:18:46;92129.72;;;9.05;86.93
53041;BME280;39326;42.650;23.248;2023-11-22T12:21:13;92119.84;;;9.09;86.74
53041;BME280;39326;42.650;23.248;2023-11-22T12:23:40;92119.47;;;9.14;85.85
53041;BME280;39326;42.650;23.248;2023-11-22T12:26:11;92122.13;;;9.10;86.81
53041;BME280;39326;42.650;23.248;2023-11-22T12:28:39;92124.44;;;8.97;87.65
53041;BME280;39326;42.650;23.248;2023-11-22T12:31:12;92120.97;;;9.00;87.44
53041;BME280;39326;42.650;23.248;2023-11-22T12:33:38;92121.34;;;9.06;87.09
53041;BME280;39326;42.650;23.248;2023-11-22T12:36:05;92119.47;;;8.99;87.75
53041;BME280;39326;42.650;23.248;2023-11-22T12:38:32;92122.53;;;9.02;87.79
53041;BME280;39326;42.650;23.248;2023-11-22T12:40:58;92125.19;;;9.02;87.84
53041;BME280;39326;42.650;23.248;2023-11-22T12:43:24;92137.34;;;8.95;87.99
53041;BME280;39326;42.650;23.248;2023-11-22T12:46:03;92137.34;;;8.74;88.30
53041;BME280;39326;42.650;23.248;2023-11-22T12:48:29;92143.03;;;8.94;87.77
53041;BME280;39326;42.650;23.248;2023-11-22T12:50:58;92151.78;;;9.02;87.14
53041;BME280;39326;42.650;23.248;2023-11-22T12:53:24;92145.69;;;9.05;87.35
53041;BME280;39326;42.650;23.248;2023-11-22T12:55:53;92161.63;;;9.01;87.14
53041;BME280;39326;42.650;23.248;2023-11-22T12:58:20;92164.31;;;8.90;87.38